createdAt,value
2019-05-02T00:01:32.082Z,8.70
2019-05-02T00:04:05.757Z,8.70
2019-05-02T00:06:38.002Z,8.66
2019-05-02T00:09:11.190Z,8.70
2019-05-02T00:11:41.458Z,8.71
2019-05-02T00:14:12.187Z,8.81
2019-05-02T00:16:45.100Z,8.87
2019-05-02T00:19:15.369Z,8.96
2019-05-02T00:21:45.680Z,8.87
2019-05-02T00:24:15.818Z,8.95
2019-05-02T00:26:45.986Z,8.95
2019-05-02T00:29:18.902Z,8.96
2019-05-02T00:31:48.868Z,8.98
2019-05-02T00:34:19.061Z,8.96
2019-05-02T00:36:49.165Z,8.96
2019-05-02T00:39:19.425Z,9.03
2019-05-02T00:41:49.551Z,9.05
2019-05-02T00:44:19.665Z,9.09
2019-05-02T00:46:49.861Z,9.12
2019-05-02T00:49:19.989Z,9.04
2019-05-02T00:51:50.164Z,9.02
2019-05-02T00:54:24.353Z,8.84
2019-05-02T00:56:52.137Z,8.87
2019-05-02T00:59:22.263Z,8.78
2019-05-02T01:01:59.952Z,8.93
2019-05-02T01:04:33.174Z,8.86
2019-05-02T01:07:04.307Z,8.83
2019-05-02T01:09:37.536Z,8.82
2019-05-02T01:12:08.413Z,8.80
2019-05-02T01:14:39.443Z,8.81
2019-05-02T01:17:09.773Z,8.72
2019-05-02T01:19:39.989Z,8.77
2019-05-02T01:22:10.557Z,8.64
2019-05-02T01:24:42.027Z,8.70
2019-05-02T01:27:21.911Z,8.58
2019-05-02T01:30:11.103Z,8.66
2019-05-02T01:33:10.106Z,8.64
2019-05-02T01:35:46.336Z,8.62
2019-05-02T01:38:31.645Z,8.70
2019-05-02T01:40:58.455Z,8.64
2019-05-02T01:43:30.382Z,8.61
2019-05-02T01:46:00.505Z,8.54
2019-05-02T01:48:30.571Z,8.49
2019-05-02T01:51:04.651Z,8.42
2019-05-02T01:53:34.428Z,8.34
2019-05-02T01:56:04.874Z,8.40
2019-05-02T01:58:35.081Z,8.50
2019-05-02T02:01:05.625Z,8.45
2019-05-02T02:03:40.573Z,8.37
2019-05-02T02:06:10.065Z,8.42
2019-05-02T02:08:40.182Z,8.37
2019-05-02T02:11:10.325Z,8.46
2019-05-02T02:13:40.443Z,8.38
2019-05-02T02:16:10.543Z,8.44
2019-05-02T02:18:46.446Z,8.43
2019-05-02T02:21:27.697Z,8.40
2019-05-02T02:24:05.483Z,8.35
2019-05-02T02:26:35.630Z,8.28
2019-05-02T02:29:07.811Z,8.19
2019-05-02T02:31:39.779Z,8.26
2019-05-02T02:34:10.601Z,8.22
2019-05-02T02:36:40.714Z,8.28
2019-05-02T02:39:14.000Z,8.27
2019-05-02T02:41:45.364Z,8.30
2019-05-02T02:44:33.859Z,8.26
2019-05-02T02:47:11.943Z,8.30
2019-05-02T02:49:37.647Z,8.31
2019-05-02T02:52:09.580Z,8.14
2019-05-02T02:54:43.365Z,8.09
2019-05-02T02:57:26.013Z,8.16
2019-05-02T02:59:47.363Z,8.16
2019-05-02T03:02:17.480Z,8.45
2019-05-02T03:04:47.775Z,8.37
2019-05-02T03:07:25.490Z,8.31
2019-05-02T03:09:49.720Z,8.21
2019-05-02T03:12:47.832Z,8.22
2019-05-02T03:15:27.727Z,8.32
2019-05-02T03:17:52.567Z,8.27
2019-05-02T03:20:22.809Z,8.31
2019-05-02T03:22:57.585Z,8.38
2019-05-02T03:25:49.215Z,8.54
2019-05-02T03:28:01.347Z,8.58
2019-05-02T03:30:37.177Z,8.38
2019-05-02T03:33:11.334Z,8.39
2019-05-02T03:35:48.177Z,8.38
2019-05-02T03:38:13.098Z,8.47
2019-05-02T03:40:52.187Z,8.43
2019-05-02T03:43:25.518Z,8.38
2019-05-02T03:46:20.433Z,8.48
2019-05-02T03:48:48.596Z,8.44
2019-05-02T03:51:25.064Z,8.58
2019-05-02T03:54:05.634Z,8.63
2019-05-02T03:56:26.736Z,8.52
2019-05-02T03:59:01.494Z,8.44
2019-05-02T04:01:38.662Z,8.57
2019-05-02T04:04:05.619Z,8.61
2019-05-02T04:06:36.274Z,8.54
2019-05-02T04:09:08.197Z,8.57
2019-05-02T04:11:40.732Z,8.47
2019-05-02T04:14:17.524Z,8.34
2019-05-02T04:16:42.140Z,8.33
2019-05-02T04:19:14.335Z,8.40
2019-05-02T04:21:45.393Z,8.46
2019-05-02T04:24:16.376Z,8.42
2019-05-02T04:26:56.628Z,8.51
2019-05-02T04:29:31.281Z,8.61
2019-05-02T04:32:04.387Z,8.57
2019-05-02T04:34:30.700Z,8.45
2019-05-02T04:37:03.991Z,8.40
2019-05-02T04:39:34.810Z,8.38
2019-05-02T04:42:13.171Z,8.57
2019-05-02T04:44:59.787Z,8.67
2019-05-02T04:47:17.597Z,8.74
2019-05-02T04:49:44.176Z,8.81
2019-05-02T04:52:17.146Z,8.55
2019-05-02T04:54:49.009Z,8.72
2019-05-02T04:57:29.321Z,8.49
2019-05-02T05:00:06.338Z,8.61
2019-05-02T05:02:34.299Z,8.71
2019-05-02T05:05:00.873Z,8.53
2019-05-02T05:07:41.024Z,8.61
2019-05-02T05:10:03.601Z,8.64
2019-05-02T05:12:38.005Z,8.61
2019-05-02T05:15:07.908Z,8.52
2019-05-02T05:17:38.174Z,8.78
2019-05-02T05:20:13.687Z,8.76
2019-05-02T05:22:44.177Z,8.75
2019-05-02T05:25:21.213Z,8.76
2019-05-02T05:27:52.566Z,8.85
2019-05-02T05:30:21.084Z,8.72
2019-05-02T05:32:51.227Z,8.91
2019-05-02T05:35:21.568Z,8.75
2019-05-02T05:37:53.373Z,8.96
2019-05-02T05:40:30.420Z,8.79
2019-05-02T05:43:02.129Z,8.74
2019-05-02T05:45:30.519Z,8.80
2019-05-02T05:48:01.191Z,8.98
2019-05-02T05:50:32.171Z,8.98
2019-05-02T05:53:03.371Z,9.08
2019-05-02T05:55:33.549Z,8.96
2019-05-02T05:58:12.296Z,8.98
2019-05-02T06:00:37.967Z,9.08
2019-05-02T06:03:14.036Z,9.15
2019-05-02T06:05:40.985Z,9.22
2019-05-02T06:08:13.783Z,9.19
2019-05-02T06:10:43.885Z,9.21
2019-05-02T06:13:16.449Z,9.19
2019-05-02T06:15:46.621Z,9.01
2019-05-02T06:18:16.731Z,8.97
2019-05-02T06:20:47.083Z,9.14
2019-05-02T06:23:17.221Z,9.19
2019-05-02T06:25:50.438Z,9.24
2019-05-02T06:28:20.523Z,9.28
2019-05-02T06:30:50.762Z,9.29
2019-05-02T06:33:20.895Z,9.48
2019-05-02T06:35:51.834Z,9.41
2019-05-02T06:38:22.923Z,9.22
2019-05-02T06:40:53.173Z,9.32
2019-05-02T06:43:23.263Z,9.23
2019-05-02T06:45:53.470Z,9.37
2019-05-02T06:48:23.596Z,9.40
2019-05-02T06:50:53.731Z,9.45
2019-05-02T06:53:23.810Z,9.43
2019-05-02T06:55:55.098Z,9.43
2019-05-02T06:58:29.396Z,9.25
2019-05-02T07:01:01.733Z,9.43
2019-05-02T07:03:31.909Z,9.44
2019-05-02T07:06:02.800Z,9.38
2019-05-02T07:08:33.933Z,9.46
2019-05-02T07:11:04.154Z,9.65
2019-05-02T07:13:36.299Z,9.64
2019-05-02T07:16:16.215Z,9.42
2019-05-02T07:18:49.667Z,9.51
2019-05-02T07:21:23.407Z,9.51
2019-05-02T07:23:53.639Z,9.46
2019-05-02T07:26:23.678Z,9.52
2019-05-02T07:28:53.775Z,9.42
2019-05-02T07:31:23.898Z,9.48
2019-05-02T07:33:54.015Z,9.50
2019-05-02T07:36:24.136Z,9.73
2019-05-02T07:38:57.060Z,9.93
2019-05-02T07:41:28.933Z,10.06
2019-05-02T07:43:57.911Z,10.07
2019-05-02T07:46:28.079Z,9.73
2019-05-02T07:48:58.344Z,9.67
2019-05-02T07:51:28.617Z,9.80
2019-05-02T07:53:59.202Z,9.84
2019-05-02T07:56:29.375Z,9.87
2019-05-02T07:58:59.529Z,9.76
2019-05-02T08:01:29.691Z,9.96
2019-05-02T08:04:04.523Z,10.01
2019-05-02T08:06:35.501Z,10.11
2019-05-02T08:09:07.143Z,9.90
2019-05-02T08:11:38.513Z,10.06
2019-05-02T08:14:08.772Z,10.22
2019-05-02T08:16:38.966Z,10.16
2019-05-02T08:19:09.109Z,10.04
2019-05-02T08:21:39.268Z,10.15
2019-05-02T08:24:09.445Z,10.19
2019-05-02T08:26:58.309Z,10.15
2019-05-02T08:29:28.757Z,10.14
2019-05-02T08:32:01.075Z,10.17
2019-05-02T08:34:32.631Z,10.32
2019-05-02T08:37:04.919Z,10.29
2019-05-02T08:39:35.385Z,10.36
2019-05-02T08:42:06.353Z,10.34
2019-05-02T08:44:49.932Z,10.32
2019-05-02T08:47:18.692Z,10.43
2019-05-02T08:49:42.502Z,10.58
2019-05-02T08:52:12.538Z,10.59
2019-05-02T08:54:42.672Z,10.56
2019-05-02T08:57:12.904Z,10.54
2019-05-02T09:00:00.135Z,10.59
2019-05-02T09:02:41.236Z,10.60
2019-05-02T09:05:06.479Z,10.46
2019-05-02T09:07:38.988Z,10.62
2019-05-02T09:10:09.186Z,10.73
2019-05-02T09:12:45.410Z,10.53
2019-05-02T09:15:19.415Z,10.45
2019-05-02T09:17:54.814Z,10.44
2019-05-02T09:20:24.195Z,10.42
2019-05-02T09:22:56.090Z,10.44
2019-05-02T09:25:28.627Z,10.48
2019-05-02T09:28:02.010Z,10.56
2019-05-02T09:30:33.175Z,10.63
2019-05-02T09:33:06.458Z,10.78
2019-05-02T09:35:37.387Z,10.75
2019-05-02T09:38:16.238Z,10.92
2019-05-02T09:40:47.191Z,11.11
2019-05-02T09:43:19.046Z,11.39
2019-05-02T09:45:49.497Z,11.39
2019-05-02T09:48:22.743Z,11.46
2019-05-02T09:50:53.942Z,11.58
2019-05-02T09:53:25.444Z,11.70
2019-05-02T09:56:02.932Z,11.55
2019-05-02T09:58:43.193Z,11.77
2019-05-02T10:01:31.981Z,11.87
2019-05-02T10:04:05.657Z,11.87
2019-05-02T10:06:42.924Z,11.68
2019-05-02T10:09:18.637Z,11.88
2019-05-02T10:11:52.734Z,12.12
2019-05-02T10:14:24.760Z,12.26
2019-05-02T10:17:05.111Z,12.29
2019-05-02T10:19:32.529Z,12.38
2019-05-02T10:22:12.254Z,12.56
2019-05-02T10:24:57.219Z,12.55
2019-05-02T10:27:27.439Z,12.98
2019-05-02T10:30:08.459Z,12.99
2019-05-02T10:32:37.017Z,12.95
2019-05-02T10:35:08.571Z,13.22
2019-05-02T10:37:39.669Z,13.25
2019-05-02T10:40:15.472Z,13.11
2019-05-02T10:42:42.389Z,13.11
2019-05-02T10:45:16.771Z,13.40
2019-05-02T10:47:46.577Z,13.62
2019-05-02T10:50:22.336Z,13.48
2019-05-02T10:52:52.780Z,13.25
2019-05-02T10:55:24.253Z,13.40
2019-05-02T10:57:54.645Z,13.80
2019-05-02T11:00:29.658Z,14.04
2019-05-02T11:03:12.197Z,14.36
2019-05-02T11:05:44.478Z,14.57
2019-05-02T11:08:14.695Z,14.57
2019-05-02T11:10:45.942Z,14.50
2019-05-02T11:13:37.007Z,14.21
2019-05-02T11:16:35.575Z,14.26
2019-05-02T11:19:24.863Z,13.70
2019-05-02T11:21:59.017Z,13.48
2019-05-02T11:24:27.917Z,13.88
2019-05-02T11:26:58.099Z,14.18
2019-05-02T11:29:28.271Z,13.92
2019-05-02T11:31:58.401Z,13.94
2019-05-02T11:34:28.579Z,14.14
2019-05-02T11:36:59.151Z,14.10
2019-05-02T11:39:40.686Z,13.98
2019-05-02T11:42:04.436Z,13.71
2019-05-02T11:44:34.710Z,14.00
2019-05-02T11:47:04.821Z,14.35
2019-05-02T11:49:34.970Z,14.59
2019-05-02T11:52:05.263Z,14.67
2019-05-02T11:54:39.165Z,14.52
2019-05-02T11:57:07.283Z,14.49
2019-05-02T11:59:37.451Z,14.47
2019-05-02T12:02:25.397Z,14.70
2019-05-02T12:04:56.028Z,14.59
2019-05-02T12:07:26.153Z,14.88
2019-05-02T12:09:57.188Z,15.02
2019-05-02T12:12:34.267Z,15.46
2019-05-02T12:14:59.367Z,15.37
2019-05-02T12:17:29.527Z,14.89
2019-05-02T12:20:05.698Z,14.90
2019-05-02T12:22:42.453Z,14.90
2019-05-02T12:25:25.435Z,15.14
2019-05-02T12:28:11.979Z,15.51
2019-05-02T12:30:52.840Z,15.75
2019-05-02T12:33:42.989Z,15.74
2019-05-02T12:36:16.871Z,15.49
2019-05-02T12:38:52.963Z,15.19
2019-05-02T12:41:29.587Z,15.36
2019-05-02T12:44:11.751Z,15.38
2019-05-02T12:46:45.481Z,15.68
2019-05-02T12:49:25.307Z,15.83
2019-05-02T12:52:01.897Z,15.90
2019-05-02T12:54:34.964Z,15.96
2019-05-02T12:57:12.515Z,15.79
2019-05-02T12:59:44.119Z,15.58
2019-05-02T13:02:27.029Z,15.21
2019-05-02T13:04:57.433Z,15.30
2019-05-02T13:07:31.738Z,14.86
2019-05-02T13:10:22.009Z,14.55
2019-05-02T13:13:02.808Z,14.73
2019-05-02T13:15:38.194Z,14.85
2019-05-02T13:18:12.509Z,14.95
2019-05-02T13:20:48.949Z,14.98
2019-05-02T13:23:40.087Z,15.10
2019-05-02T13:26:21.795Z,14.97
2019-05-02T13:28:52.690Z,14.99
2019-05-02T13:31:49.565Z,15.29
2019-05-02T13:34:54.089Z,15.35
2019-05-02T13:37:44.149Z,15.31
2019-05-02T13:40:29.236Z,15.36
2019-05-02T13:43:05.410Z,15.01
2019-05-02T13:46:07.600Z,14.97
2019-05-02T13:48:37.776Z,14.77
2019-05-02T13:51:07.957Z,14.61
2019-05-02T13:56:52.771Z,14.09
2019-05-02T13:59:23.822Z,13.85
2019-05-02T14:01:55.932Z,13.78
2019-05-02T14:04:26.317Z,13.58
2019-05-02T14:07:00.038Z,13.22
2019-05-02T14:09:58.330Z,12.86
2019-05-02T14:12:47.226Z,12.72
2019-05-02T14:15:22.133Z,12.61
2019-05-02T14:17:54.286Z,12.53
2019-05-02T14:20:25.631Z,12.53
2019-05-02T14:22:56.040Z,12.69
2019-05-02T14:25:35.084Z,12.58
2019-05-02T14:28:15.899Z,12.52
2019-05-02T14:30:54.519Z,12.54
2019-05-02T14:33:27.109Z,12.51
2019-05-02T14:35:57.657Z,12.46
2019-05-02T14:38:29.042Z,12.49
2019-05-02T14:41:12.445Z,12.52
2019-05-02T14:43:56.484Z,12.66
2019-05-02T14:46:37.569Z,12.72
2019-05-02T14:49:04.979Z,12.89
2019-05-02T14:51:36.777Z,13.00
2019-05-02T14:54:08.664Z,13.05
2019-05-02T14:57:11.779Z,12.98
2019-05-02T14:59:42.870Z,13.04
2019-05-02T15:02:39.230Z,13.22
2019-05-02T15:05:09.638Z,13.27
2019-05-02T15:07:39.913Z,13.42
2019-05-02T15:10:12.513Z,13.46
2019-05-02T15:12:51.707Z,13.49
2019-05-02T15:15:23.095Z,13.20
2019-05-02T15:17:53.555Z,13.55
2019-05-02T15:20:36.552Z,13.67
2019-05-02T15:22:56.715Z,13.97
2019-05-02T15:25:28.429Z,13.91
2019-05-02T15:28:02.022Z,13.69
2019-05-02T15:30:30.997Z,13.70
2019-05-02T15:33:12.563Z,13.62
2019-05-02T15:36:03.189Z,13.50
2019-05-02T15:38:37.161Z,13.40
2019-05-02T15:41:09.505Z,13.37
2019-05-02T15:43:39.367Z,13.41
2019-05-02T15:46:09.678Z,13.28
2019-05-02T15:48:42.169Z,13.12
2019-05-02T15:51:15.344Z,12.99
2019-05-02T15:54:08.091Z,13.06
2019-05-02T15:56:52.264Z,13.31
2019-05-02T15:59:37.720Z,13.05
2019-05-02T16:02:17.563Z,12.94
2019-05-02T16:04:46.220Z,13.03
2019-05-02T16:07:20.084Z,13.07
2019-05-02T16:09:51.521Z,13.22
2019-05-02T16:12:22.374Z,13.31
2019-05-02T16:14:52.811Z,13.31
2019-05-02T16:17:29.531Z,13.10
2019-05-02T16:20:10.389Z,13.18
2019-05-02T16:22:46.320Z,13.23
2019-05-02T16:25:12.208Z,13.21
2019-05-02T16:27:47.977Z,13.20
2019-05-02T16:30:22.363Z,13.21
2019-05-02T16:33:02.827Z,13.17
2019-05-02T16:35:34.570Z,13.18
2019-05-02T16:38:04.964Z,13.03
2019-05-02T16:40:35.338Z,12.89
2019-05-02T16:43:12.159Z,13.01
2019-05-02T16:45:43.969Z,13.07
2019-05-02T16:48:17.241Z,13.08
2019-05-02T16:50:48.415Z,13.09
2019-05-02T16:53:22.654Z,12.99
2019-05-02T16:55:51.835Z,12.96
2019-05-02T16:58:23.305Z,12.97
2019-05-02T17:00:55.118Z,12.89
2019-05-02T17:03:26.601Z,12.81
2019-05-02T17:05:57.352Z,12.83
2019-05-02T17:08:58.503Z,13.00
2019-05-02T17:11:35.944Z,13.08
2019-05-02T17:14:11.598Z,13.36
2019-05-02T17:16:38.740Z,13.75
2019-05-02T17:19:09.168Z,13.63
2019-05-02T17:21:53.116Z,13.69
2019-05-02T17:24:17.310Z,13.47
2019-05-02T17:26:47.286Z,13.49
2019-05-02T17:29:21.456Z,13.53
2019-05-02T17:31:50.099Z,13.33
2019-05-02T17:34:30.067Z,13.14
2019-05-02T17:36:59.098Z,12.94
2019-05-02T17:39:30.528Z,12.82
2019-05-02T17:42:02.766Z,12.91
2019-05-02T17:44:35.216Z,12.90
2019-05-02T17:47:06.916Z,12.88
2019-05-02T17:49:39.254Z,12.85
2019-05-02T17:52:26.033Z,12.76
2019-05-02T17:54:52.843Z,12.53
2019-05-02T17:57:28.559Z,12.62
2019-05-02T17:59:58.279Z,12.47
2019-05-02T18:02:34.089Z,12.62
2019-05-02T18:05:05.588Z,12.45
2019-05-02T18:07:36.282Z,12.43
2019-05-02T18:10:14.300Z,12.26
2019-05-02T18:12:39.492Z,12.21
2019-05-02T18:15:13.411Z,12.25
2019-05-02T18:17:46.041Z,12.39
2019-05-02T18:20:16.092Z,12.29
2019-05-02T18:22:48.921Z,12.36
2019-05-02T18:25:21.638Z,12.20
2019-05-02T18:27:51.841Z,12.16
2019-05-02T18:30:26.866Z,12.09
2019-05-02T18:32:57.735Z,12.01
2019-05-02T18:35:43.032Z,12.08
2019-05-02T18:38:10.583Z,12.03
2019-05-02T18:40:42.562Z,12.05
2019-05-02T18:43:14.110Z,12.00
2019-05-02T18:45:46.503Z,11.85
2019-05-02T18:48:21.784Z,11.47
2019-05-02T18:50:52.673Z,10.95
2019-05-02T18:53:26.996Z,10.73
2019-05-02T18:55:56.843Z,10.57
2019-05-02T18:58:31.910Z,10.60
2019-05-02T19:01:03.529Z,10.45
2019-05-02T19:03:37.041Z,10.52
2019-05-02T19:06:07.834Z,10.49
2019-05-02T19:08:46.766Z,10.46
2019-05-02T19:11:17.571Z,10.48
2019-05-02T19:13:52.718Z,10.38
2019-05-02T19:16:28.569Z,10.25
2019-05-02T19:18:58.325Z,10.33
2019-05-02T19:21:36.763Z,10.41
2019-05-02T19:24:04.914Z,10.33
2019-05-02T19:26:35.567Z,10.34
2019-05-02T19:29:14.101Z,10.48
2019-05-02T19:31:52.322Z,10.41
2019-05-02T19:34:26.633Z,10.38
2019-05-02T19:36:57.815Z,10.41
2019-05-02T19:39:29.647Z,10.43
2019-05-02T19:42:01.736Z,10.28
2019-05-02T19:44:37.458Z,10.32
2019-05-02T19:47:12.526Z,10.33
2019-05-02T19:49:42.381Z,10.33
2019-05-02T19:52:12.842Z,10.33
2019-05-02T19:54:43.786Z,10.34
2019-05-02T19:57:17.144Z,10.29
2019-05-02T19:59:47.579Z,10.27
2019-05-02T20:02:17.952Z,10.28
2019-05-02T20:04:48.515Z,10.44
2019-05-02T20:07:18.966Z,10.38
2019-05-02T20:09:49.595Z,10.36
2019-05-02T20:12:21.888Z,10.29
2019-05-02T20:14:52.135Z,10.28
2019-05-02T20:17:24.052Z,10.29
2019-05-02T20:19:57.869Z,10.32
2019-05-02T20:22:31.642Z,10.15
2019-05-02T20:25:04.040Z,9.99
2019-05-02T20:27:37.615Z,9.98
2019-05-02T20:30:08.493Z,9.97
2019-05-02T20:32:39.065Z,9.77
2019-05-02T20:35:13.572Z,9.74
2019-05-02T20:37:44.048Z,9.66
2019-05-02T20:40:31.687Z,9.67
2019-05-02T20:43:02.622Z,9.63
2019-05-02T20:45:35.427Z,9.45
2019-05-02T20:48:06.130Z,9.40
2019-05-02T20:50:44.402Z,9.29
2019-05-02T20:53:14.956Z,9.18
2019-05-02T20:55:45.576Z,9.28
2019-05-02T20:58:15.982Z,9.32
2019-05-02T21:00:46.812Z,9.24
2019-05-02T21:03:17.538Z,9.24
2019-05-02T21:06:13.031Z,9.25
2019-05-02T21:08:56.298Z,9.23
2019-05-02T21:11:27.267Z,9.11
2019-05-02T21:13:57.723Z,9.03
2019-05-02T21:16:28.578Z,8.92
2019-05-02T21:18:59.142Z,8.86
2019-05-02T21:21:29.962Z,8.91
2019-05-02T21:24:02.192Z,8.85
2019-05-02T21:26:32.961Z,8.88
2019-05-02T21:29:07.713Z,8.82
2019-05-02T21:31:37.971Z,8.77
2019-05-02T21:34:08.091Z,8.73
2019-05-02T21:36:38.460Z,8.57
2019-05-02T21:39:12.180Z,8.58
2019-05-02T21:41:43.473Z,8.45
2019-05-02T21:44:16.723Z,8.42
2019-05-02T21:46:47.032Z,8.46
2019-05-02T21:49:43.428Z,8.36
2019-05-02T21:52:32.861Z,8.45
2019-05-02T21:55:14.330Z,8.38
2019-05-02T21:57:44.658Z,8.49
2019-05-02T22:00:42.180Z,8.46
2019-05-02T22:03:12.750Z,8.44
2019-05-02T22:05:43.262Z,8.34
2019-05-02T22:08:13.809Z,8.48
2019-05-02T22:10:47.283Z,8.62
2019-05-02T22:13:19.271Z,8.63
2019-05-02T22:15:51.614Z,8.74
2019-05-02T22:18:24.474Z,8.67
2019-05-02T22:20:56.585Z,8.74
2019-05-02T22:23:27.184Z,8.66
2019-05-02T22:25:59.599Z,8.73
2019-05-02T22:28:29.907Z,8.72
2019-05-02T22:31:06.951Z,8.66
2019-05-02T22:33:37.603Z,8.73
2019-05-02T22:36:12.384Z,8.76
2019-05-02T22:38:54.355Z,8.73
2019-05-02T22:41:24.861Z,8.71
2019-05-02T22:43:55.285Z,8.71
2019-05-02T22:46:45.413Z,8.67
2019-05-02T22:49:16.423Z,8.69
2019-05-02T22:51:46.938Z,8.78
2019-05-02T22:54:26.785Z,8.88
2019-05-02T22:56:49.553Z,8.82
2019-05-02T22:59:23.716Z,8.80
2019-05-02T23:01:52.879Z,8.78
2019-05-02T23:04:23.560Z,8.72
2019-05-02T23:06:54.948Z,8.64
2019-05-02T23:09:25.380Z,8.56
2019-05-02T23:11:55.642Z,8.61
2019-05-02T23:14:28.203Z,8.50
2019-05-02T23:16:58.349Z,8.33
2019-05-02T23:19:28.483Z,8.48
2019-05-02T23:21:59.033Z,8.60
2019-05-02T23:24:44.296Z,8.50
2019-05-02T23:27:23.903Z,8.48
2019-05-02T23:29:55.353Z,8.47
2019-05-02T23:32:26.861Z,8.48
2019-05-02T23:34:57.090Z,8.50
2019-05-02T23:37:27.402Z,8.27
2019-05-02T23:39:57.841Z,8.31
2019-05-02T23:42:28.553Z,8.30
2019-05-02T23:44:59.799Z,8.28
2019-05-02T23:47:30.081Z,8.29
2019-05-02T23:50:00.425Z,8.23
2019-05-02T23:52:31.598Z,8.25
2019-05-02T23:55:03.112Z,8.30
2019-05-02T23:57:34.411Z,8.25
